»·PEaware :: AAL633 KPHX-KSEA

AAL633 :: KPHX-KSEA

FLIGHT INFORMATION

Flight Status: Arrived
Operator:
American Airlines
More flights by this operator :: More flights under this callsign
Pilot: Robert Y. (11885)
Aircraft: BOEING 737-800
(B738)
More flights by this aircraft type
Origin: KPHX Phoenix Sky Harbor Intl
United States
Destination: KSEA Seattle-Tacoma Intl
United States
More flights between these airports :: More routes between these airports
Route: +SNOBL5 GCN CRITO KU69K PDT CHINS2
File this flight plan on PilotEdge
Remarks: http; / / aavirtual.net AAL9314 Robert Yunque
Altitude:
(Current/Filed)
34,000ft
Speed:
(Current/Filed)
300kts
Departed: 23-Sep-17 05:08 PM
Arrived: 23-Sep-17 07:38 PM
Distance/Time
Traveled:
961nm/2:30
Distance/Time
To Go:
Arrived

Flight Plot

Page will automatically refresh every two minutes.

Flight plan parsing failed; only flown route is shown


Map Options




Map Legend


Flown Route
Filed Route
Departure Airport
Arrival Airport
Navaid (VOR, NDB)
Fix

Horizontal Profiles

Position Reports

Time Latitude Longitude Heading Altitude Ground
Speed
23-Sep-17 16:37 33.436861 -112.002494 90 1142ft 0kts
23-Sep-17 16:38 33.436861 -112.002494 90 1142ft 0kts
23-Sep-17 16:39 33.436861 -112.002494 90 1142ft 0kts
23-Sep-17 16:40 33.436861 -112.002494 90 1142ft 0kts
23-Sep-17 16:41 33.436861 -112.002494 90 1142ft 0kts
23-Sep-17 16:42 33.436861 -112.002494 90 1142ft 0kts
23-Sep-17 16:43 33.436861 -112.002494 90 1142ft 0kts
23-Sep-17 16:44 33.436861 -112.002494 90 1142ft 0kts
23-Sep-17 16:45 33.436861 -112.002494 90 1142ft 0kts
23-Sep-17 16:46 33.436861 -112.002494 90 1142ft 0kts
23-Sep-17 16:47 33.436861 -112.002494 90 1142ft 0kts
23-Sep-17 16:48 33.436861 -112.002494 90 1142ft 0kts
23-Sep-17 16:49 33.436861 -112.002494 90 1142ft 0kts
23-Sep-17 16:50 33.436862 -112.002533 89 1142ft 1kts
23-Sep-17 16:51 33.436550 -112.003033 359 1142ft 2kts
23-Sep-17 16:52 33.436357 -112.003031 359 1142ft 0kts
23-Sep-17 16:53 33.436357 -112.003031 359 1142ft 0kts
23-Sep-17 16:54 33.436357 -112.003031 359 1142ft 0kts
23-Sep-17 16:55 33.436357 -112.003031 359 1142ft 0kts
23-Sep-17 16:56 33.436357 -112.003031 359 1142ft 0kts
23-Sep-17 16:57 33.436357 -112.003031 359 1142ft 0kts
23-Sep-17 16:58 33.436357 -112.003031 359 1142ft 0kts
23-Sep-17 16:59 33.436357 -112.003031 359 1142ft 0kts
23-Sep-17 17:00 33.436357 -112.003031 359 1142ft 0kts
23-Sep-17 17:01 33.436357 -112.003031 359 1142ft 0kts
23-Sep-17 17:02 33.437670 -112.003065 0 1142ft 4kts
23-Sep-17 17:03 33.439168 -112.003652 328 1142ft 4kts
23-Sep-17 17:04 33.439725 -112.003166 85 1142ft 7kts
23-Sep-17 17:05 33.439722 -112.001818 90 1142ft 4kts
23-Sep-17 17:06 33.439719 -112.001185 88 1142ft 9kts
23-Sep-17 17:07 33.439722 -111.995249 92 1142ft 15kts
23-Sep-17 17:08 33.439802 -111.992704 62 1142ft 0kts
23-Sep-17 17:09 33.439835 -111.992627 62 1142ft 0kts
23-Sep-17 17:10 33.439837 -111.992622 62 1142ft 0kts
23-Sep-17 17:11 33.440774 -111.992657 296 1142ft 16kts
23-Sep-17 17:12 33.440852 -112.013493 268 1174ft 158kts
23-Sep-17 17:13 33.442627 -112.069188 273 3846ft 172kts
23-Sep-17 17:14 33.474744 -112.114950 313 6467ft 190kts
23-Sep-17 17:15 33.520886 -112.162188 328 8084ft 255kts
23-Sep-17 17:16 33.600222 -112.167294 13 10119ft 306kts
23-Sep-17 17:17 33.669083 -112.095546 39 11689ft 365kts
23-Sep-17 17:18 33.744981 -111.999615 36 12663ft 424kts
23-Sep-17 17:19 33.857140 -111.959392 356 14721ft 430kts
23-Sep-17 17:20 33.977511 -111.947493 14 16788ft 452kts
23-Sep-17 17:21 34.103261 -111.930170 357 18626ft 458kts
23-Sep-17 17:22 34.230542 -111.943651 347 20277ft 464kts
23-Sep-17 17:23 34.360254 -111.962791 348 21781ft 476kts
23-Sep-17 17:24 34.494522 -111.973937 352 23092ft 489kts
23-Sep-17 17:25 34.628438 -111.989581 345 24220ft 493kts
23-Sep-17 17:26 34.766289 -112.005961 350 25429ft 501kts
23-Sep-17 17:27 34.907065 -112.015170 352 26649ft 504kts
23-Sep-17 17:28 35.043575 -112.028305 344 27937ft 497kts
23-Sep-17 17:29 35.181152 -112.050049 347 29197ft 499kts
23-Sep-17 17:30 35.317610 -112.070508 349 30415ft 501kts
23-Sep-17 17:31 35.456961 -112.084508 346 31470ft 502kts
23-Sep-17 17:32 35.597257 -112.096231 351 32519ft 508kts
23-Sep-17 17:33 35.735735 -112.110228 346 33478ft 506kts
23-Sep-17 17:34 35.875676 -112.132689 347 33982ft 509kts
23-Sep-17 17:35 36.011924 -112.170673 332 33989ft 495kts
23-Sep-17 17:36 36.132524 -112.247396 324 33985ft 487kts
23-Sep-17 17:37 36.249972 -112.326994 324 33978ft 486kts
23-Sep-17 17:38 36.368485 -112.408253 324 33967ft 484kts
23-Sep-17 17:39 36.486106 -112.489492 324 33957ft 483kts
23-Sep-17 17:40 36.603430 -112.570947 324 33950ft 483kts
23-Sep-17 17:41 36.720652 -112.652949 324 33981ft 482kts
23-Sep-17 17:42 36.837316 -112.734820 324 33986ft 481kts
23-Sep-17 17:43 36.953886 -112.816717 324 33986ft 481kts
23-Sep-17 17:44 37.070538 -112.899116 324 34013ft 480kts
23-Sep-17 17:45 37.186517 -112.981819 324 34010ft 479kts
23-Sep-17 17:46 37.302297 -113.064033 324 34017ft 479kts
23-Sep-17 17:47 37.418288 -113.147027 325 34026ft 478kts
23-Sep-17 17:48 37.532524 -113.229652 325 34037ft 477kts
23-Sep-17 17:49 37.647665 -113.311902 325 34042ft 475kts
23-Sep-17 17:50 37.762700 -113.394688 325 34041ft 474kts
23-Sep-17 17:51 37.876860 -113.477235 326 34036ft 472kts
23-Sep-17 17:52 37.990887 -113.560224 326 34033ft 471kts
23-Sep-17 17:53 38.104539 -113.643193 326 34033ft 472kts
23-Sep-17 17:54 38.217802 -113.726891 325 34031ft 470kts
23-Sep-17 17:55 38.331090 -113.811467 325 34031ft 471kts
23-Sep-17 17:56 38.443958 -113.896238 325 34031ft 472kts
23-Sep-17 17:57 38.557136 -113.981383 325 34034ft 473kts
23-Sep-17 17:58 38.670393 -114.066505 326 34040ft 466kts
23-Sep-17 17:59 38.781592 -114.151017 327 34050ft 465kts
23-Sep-17 18:00 38.893088 -114.234924 327 34057ft 465kts
23-Sep-17 18:01 39.004632 -114.319982 327 34064ft 465kts
23-Sep-17 18:02 39.116490 -114.403322 329 34070ft 465kts
23-Sep-17 18:03 39.226416 -114.490674 326 34076ft 465kts
23-Sep-17 18:04 39.340495 -114.570019 340 34078ft 468kts
23-Sep-17 18:05 39.464507 -114.619703 333 34078ft 467kts
23-Sep-17 18:06 39.575532 -114.706524 326 34078ft 465kts
23-Sep-17 18:07 39.689737 -114.784402 333 34076ft 464kts
23-Sep-17 18:08 39.805975 -114.856882 332 34076ft 463kts
23-Sep-17 18:09 39.921395 -114.931156 332 34082ft 461kts
23-Sep-17 18:10 40.035680 -115.005577 333 34083ft 459kts
23-Sep-17 18:11 40.149759 -115.080028 333 34083ft 457kts
23-Sep-17 18:12 40.263435 -115.154884 333 34084ft 455kts
23-Sep-17 18:13 40.376141 -115.229422 332 34084ft 453kts
23-Sep-17 18:14 40.488092 -115.304633 333 34085ft 452kts
23-Sep-17 18:15 40.600093 -115.380255 332 34087ft 451kts
23-Sep-17 18:16 40.709446 -115.454461 332 34088ft 451kts
23-Sep-17 18:17 40.817433 -115.527609 333 34089ft 450kts
23-Sep-17 18:18 40.910964 -115.592183 333 34089ft 449kts
23-Sep-17 18:19 41.022054 -115.667122 333 34089ft 448kts
23-Sep-17 18:20 41.132688 -115.742533 333 34088ft 447kts
23-Sep-17 18:21 41.261514 -115.830988 334 34092ft 445kts
23-Sep-17 18:22 41.371663 -115.904893 332 34093ft 444kts
23-Sep-17 18:23 41.461691 -115.971484 335 34094ft 441kts
23-Sep-17 18:24 41.572827 -116.038006 339 34094ft 433kts
23-Sep-17 18:25 41.683423 -116.101756 337 34094ft 434kts
23-Sep-17 18:26 41.793098 -116.171211 336 34094ft 436kts
23-Sep-17 18:27 41.902051 -116.242185 336 34095ft 436kts
23-Sep-17 18:28 42.010803 -116.313629 336 34095ft 435kts
23-Sep-17 18:29 42.119628 -116.385513 336 34095ft 435kts
23-Sep-17 18:30 42.227855 -116.457237 336 34095ft 434kts
23-Sep-17 18:31 42.335740 -116.528880 336 34095ft 432kts
23-Sep-17 18:32 42.443606 -116.600921 336 34096ft 431kts
23-Sep-17 18:33 42.550577 -116.672715 336 34102ft 429kts
23-Sep-17 18:34 42.657166 -116.744643 336 34104ft 428kts
23-Sep-17 18:35 42.763900 -116.816833 336 34111ft 427kts
23-Sep-17 18:36 42.869734 -116.888891 335 34115ft 426kts
23-Sep-17 18:37 42.975563 -116.961189 336 34115ft 424kts
23-Sep-17 18:38 43.081140 -117.033154 336 34110ft 424kts
23-Sep-17 18:39 43.186535 -117.105418 336 34111ft 423kts
23-Sep-17 18:40 43.291916 -117.178078 336 34111ft 423kts
23-Sep-17 18:41 43.396891 -117.250766 336 34112ft 422kts
23-Sep-17 18:42 43.501596 -117.323343 336 34119ft 422kts
23-Sep-17 18:43 43.606457 -117.396529 336 34117ft 420kts
23-Sep-17 18:44 43.710643 -117.469716 336 34120ft 420kts
23-Sep-17 18:45 43.814468 -117.543468 336 34121ft 419kts
23-Sep-17 18:46 43.918676 -117.616877 336 34123ft 419kts
23-Sep-17 18:47 44.022254 -117.690134 336 34128ft 419kts
23-Sep-17 18:48 44.125877 -117.763859 336 34136ft 418kts
23-Sep-17 18:49 44.229490 -117.838250 336 34142ft 418kts
23-Sep-17 18:50 44.333056 -117.912493 336 34147ft 419kts
23-Sep-17 18:51 44.436859 -117.987484 335 34153ft 419kts
23-Sep-17 18:52 44.540067 -118.062245 335 34156ft 417kts
23-Sep-17 18:53 44.642640 -118.138531 335 34158ft 417kts
23-Sep-17 18:54 44.745353 -118.214937 335 34158ft 416kts
23-Sep-17 18:55 44.847637 -118.291103 336 34159ft 416kts
23-Sep-17 18:56 44.949648 -118.367538 335 34161ft 415kts
23-Sep-17 18:57 45.052005 -118.443986 335 34158ft 415kts
23-Sep-17 18:58 45.153928 -118.520520 335 34158ft 415kts
23-Sep-17 18:59 45.256286 -118.597165 335 34159ft 415kts
23-Sep-17 19:00 45.357894 -118.674170 335 34158ft 414kts
23-Sep-17 19:01 45.458852 -118.750997 335 34153ft 414kts
23-Sep-17 19:02 45.561223 -118.826542 334 34140ft 414kts
23-Sep-17 19:03 45.661032 -118.908223 334 34130ft 412kts
23-Sep-17 19:04 45.751112 -119.012325 316 34125ft 422kts
23-Sep-17 19:05 45.825202 -119.143359 314 34113ft 423kts
23-Sep-17 19:06 45.900023 -119.272748 315 34110ft 421kts
23-Sep-17 19:07 45.976669 -119.399769 315 34113ft 419kts
23-Sep-17 19:08 46.051286 -119.524797 315 34123ft 418kts
23-Sep-17 19:09 46.123794 -119.656182 312 34126ft 419kts
23-Sep-17 19:10 46.197896 -119.785671 315 34127ft 417kts
23-Sep-17 19:11 46.271081 -119.915807 314 34127ft 417kts
23-Sep-17 19:12 46.348178 -120.040865 316 34129ft 416kts
23-Sep-17 19:13 46.424017 -120.167280 313 34129ft 417kts
23-Sep-17 19:14 46.492601 -120.298952 312 34128ft 418kts
23-Sep-17 19:15 46.565231 -120.430961 315 33422ft 416kts
23-Sep-17 19:16 46.636463 -120.563372 311 32433ft 423kts
23-Sep-17 19:17 46.703538 -120.705323 307 31436ft 430kts
23-Sep-17 19:18 46.767720 -120.853002 308 29454ft 430kts
23-Sep-17 19:19 46.837146 -120.995375 312 25913ft 432kts
23-Sep-17 19:20 46.908083 -121.133223 309 23159ft 419kts
23-Sep-17 19:21 46.971033 -121.274180 305 20857ft 397kts
23-Sep-17 19:22 47.023131 -121.397860 306 20124ft 333kts
23-Sep-17 19:23 47.074534 -121.510346 309 19295ft 334kts
23-Sep-17 19:24 47.127545 -121.619911 307 17830ft 327kts
23-Sep-17 19:25 47.176802 -121.734116 306 15933ft 332kts
23-Sep-17 19:26 47.229834 -121.844804 309 14034ft 330kts
23-Sep-17 19:27 47.280464 -121.951693 305 12162ft 312kts
23-Sep-17 19:28 47.323016 -122.056343 304 11988ft 291kts
23-Sep-17 19:29 47.368365 -122.151671 320 11953ft 282kts
23-Sep-17 19:30 47.443116 -122.159032 5 11354ft 285kts
23-Sep-17 19:31 47.521808 -122.146467 4 10147ft 281kts
23-Sep-17 19:32 47.599627 -122.134937 4 8948ft 283kts
23-Sep-17 19:33 47.676942 -122.128897 342 7737ft 280kts
23-Sep-17 19:34 47.711946 -122.220653 282 6609ft 253kts
23-Sep-17 19:35 47.725157 -122.315341 281 5407ft 215kts
23-Sep-17 19:36 47.702521 -122.367654 161 4129ft 187kts
23-Sep-17 19:37 47.657079 -122.332223 150 3999ft 188kts
23-Sep-17 19:38 47.609094 -122.306481 182 3568ft 191kts
23-Sep-17 19:39 47.556687 -122.306994 180 2242ft 180kts
23-Sep-17 19:40 47.508836 -122.307375 179 1350ft 150kts
23-Sep-17 19:41 47.468888 -122.307490 180 659ft 140kts
23-Sep-17 19:42 47.446142 -122.307761 155 441ft 17kts
23-Sep-17 19:43 47.445757 -122.306479 95 441ft 0kts
23-Sep-17 19:44 47.444220 -122.306169 178 441ft 16kts
23-Sep-17 19:45 47.440578 -122.306155 181 441ft 11kts
23-Sep-17 19:46 47.440187 -122.302866 56 441ft 6kts
23-Sep-17 19:47 47.440837 -122.302987 284 441ft 0kts
23-Sep-17 19:48 47.440837 -122.302989 284 441ft 0kts
23-Sep-17 19:49 47.440837 -122.302989 284 441ft 0kts
23-Sep-17 19:50 47.440837 -122.302989 284 441ft 0kts
23-Sep-17 19:51 47.440837 -122.302989 284 441ft 0kts
23-Sep-17 19:52 47.440837 -122.302989 284 441ft 0kts
23-Sep-17 19:53 47.440837 -122.302989 284 441ft 0kts
23-Sep-17 19:54 47.440837 -122.302989 284 441ft 0kts
23-Sep-17 19:55 47.440837 -122.302989 284 441ft 0kts
23-Sep-17 19:56 47.440837 -122.302989 284 441ft 0kts

Navigation Log

Ident Type
Flight plan parsing failed, navigation log unavailable